createdAt,value
2019-02-20T00:02:00.987Z,100307.97
2019-02-20T00:04:27.153Z,100315.79
2019-02-20T00:06:53.652Z,100319.05
2019-02-20T00:09:19.846Z,100317.60
2019-02-20T00:11:46.016Z,100309.94
2019-02-20T00:14:12.245Z,100313.05
2019-02-20T00:16:38.449Z,100316.73
2019-02-20T00:19:04.652Z,100312.66
2019-02-20T00:21:31.200Z,100316.05
2019-02-20T00:23:57.389Z,100320.91
2019-02-20T00:26:23.560Z,100325.73
2019-02-20T00:28:49.825Z,100331.44
2019-02-20T00:31:16.041Z,100330.18
2019-02-20T00:33:42.225Z,100337.51
2019-02-20T00:36:08.395Z,100332.01
2019-02-20T00:38:34.601Z,100336.06
2019-02-20T00:41:01.164Z,100337.70
2019-02-20T00:43:27.344Z,100333.42
2019-02-20T00:46:01.407Z,100339.36
2019-02-20T00:48:32.654Z,100341.45
2019-02-20T00:51:00.719Z,100337.30
2019-02-20T00:53:29.106Z,100336.23
2019-02-20T00:55:55.555Z,100340.97
2019-02-20T00:58:21.747Z,100339.94
2019-02-20T01:00:47.895Z,100347.83
2019-02-20T01:03:14.114Z,100347.30
2019-02-20T01:05:40.251Z,100346.84
2019-02-20T01:08:06.497Z,100343.31
2019-02-20T01:10:32.982Z,100349.52
2019-02-20T01:12:59.242Z,100349.41
2019-02-20T01:15:25.512Z,100341.38
2019-02-20T01:17:51.720Z,100334.11
2019-02-20T01:20:17.937Z,100334.43
2019-02-20T01:22:44.458Z,100325.37
2019-02-20T01:25:10.759Z,100320.94
2019-02-20T01:27:36.940Z,100316.67
2019-02-20T01:30:07.935Z,100316.25
2019-02-20T01:32:34.095Z,100325.43
2019-02-20T01:35:00.624Z,100314.42
2019-02-20T01:37:26.818Z,100318.60
2019-02-20T01:39:53.000Z,100320.53
2019-02-20T01:42:19.270Z,100317.81
2019-02-20T01:44:45.453Z,100319.17
2019-02-20T01:47:11.636Z,100321.98
2019-02-20T01:49:37.825Z,100314.02
2019-02-20T01:52:03.991Z,100310.30
2019-02-20T01:54:30.193Z,100311.84
2019-02-20T01:56:57.287Z,100309.64
2019-02-20T01:59:23.586Z,100315.78
2019-02-20T02:01:49.750Z,100312.92
2019-02-20T02:04:15.946Z,100313.95
2019-02-20T02:06:42.114Z,100312.64
2019-02-20T02:09:08.306Z,100310.44
2019-02-20T02:11:34.446Z,100318.89
2019-02-20T02:14:01.049Z,100316.16
2019-02-20T02:16:27.189Z,100310.83
2019-02-20T02:18:53.389Z,100308.69
2019-02-20T02:21:19.581Z,100323.53
2019-02-20T02:23:47.613Z,100319.06
2019-02-20T02:26:13.835Z,100325.59
2019-02-20T02:28:40.048Z,100326.01
2019-02-20T02:31:06.599Z,100327.48
2019-02-20T02:33:32.760Z,100326.07
2019-02-20T02:35:59.183Z,100316.31
2019-02-20T02:38:25.327Z,100330.83
2019-02-20T02:40:51.530Z,100326.64
2019-02-20T02:43:18.045Z,100328.03
2019-02-20T02:45:44.595Z,100332.15
2019-02-20T02:48:10.728Z,100332.63
2019-02-20T02:50:36.989Z,100333.67
2019-02-20T02:53:03.100Z,100339.72
2019-02-20T02:55:29.558Z,100336.11
2019-02-20T02:57:55.708Z,100333.52
2019-02-20T03:00:21.911Z,100341.72
2019-02-20T03:02:48.061Z,100340.52
2019-02-20T03:05:14.496Z,100339.00
2019-02-20T03:07:40.668Z,100340.78
2019-02-20T03:10:07.372Z,100335.17
2019-02-20T03:12:33.519Z,100337.73
2019-02-20T03:14:59.709Z,100342.14
2019-02-20T03:17:25.859Z,100351.78
2019-02-20T03:19:52.415Z,100352.27
2019-02-20T03:22:18.719Z,100348.13
2019-02-20T03:24:44.918Z,100350.84
2019-02-20T03:27:11.440Z,100350.77
2019-02-20T03:29:37.585Z,100359.27
2019-02-20T03:32:03.764Z,100366.08
2019-02-20T03:34:29.949Z,100356.82
2019-02-20T03:36:56.138Z,100365.15
2019-02-20T03:39:22.314Z,100364.91
2019-02-20T03:41:49.050Z,100362.98
2019-02-20T03:44:15.362Z,100367.52
2019-02-20T03:46:41.518Z,100370.72
2019-02-20T03:49:07.709Z,100374.44
2019-02-20T03:51:33.868Z,100372.38
2019-02-20T03:54:00.072Z,100374.02
2019-02-20T03:56:26.258Z,100376.56
2019-02-20T03:58:52.518Z,100371.41
2019-02-20T04:01:18.695Z,100374.69
2019-02-20T04:03:44.836Z,100378.28
2019-02-20T04:06:11.057Z,100378.75
2019-02-20T04:08:37.220Z,100378.20
2019-02-20T04:11:03.721Z,100378.16
2019-02-20T04:13:29.941Z,100381.05
2019-02-20T04:15:56.108Z,100371.75
2019-02-20T04:18:22.307Z,100374.20
2019-02-20T04:20:48.613Z,100377.41
2019-02-20T04:23:14.856Z,100376.58
2019-02-20T04:25:41.011Z,100376.23
2019-02-20T04:28:07.207Z,100382.13
2019-02-20T04:30:33.361Z,100384.42
2019-02-20T04:32:59.567Z,100376.95
2019-02-20T04:35:25.747Z,100381.72
2019-02-20T04:37:51.905Z,100379.35
2019-02-20T04:40:18.102Z,100375.73
2019-02-20T04:42:44.256Z,100374.23
2019-02-20T04:45:10.480Z,100374.02
2019-02-20T04:47:36.639Z,100376.31
2019-02-20T04:50:06.144Z,100373.98
2019-02-20T04:52:32.295Z,100384.14
2019-02-20T04:54:58.533Z,100375.05
2019-02-20T04:57:24.680Z,100375.03
2019-02-20T04:59:50.924Z,100384.05
2019-02-20T05:02:17.086Z,100384.88
2019-02-20T05:04:43.309Z,100386.11
2019-02-20T05:07:09.450Z,100388.56
2019-02-20T05:09:35.643Z,100388.63
2019-02-20T05:12:01.796Z,100388.67
2019-02-20T05:14:27.965Z,100387.09
2019-02-20T05:16:54.175Z,100375.11
2019-02-20T05:19:20.363Z,100384.30
2019-02-20T05:21:46.798Z,100386.11
2019-02-20T05:24:23.791Z,100380.37
2019-02-20T05:26:41.131Z,100386.92
2019-02-20T05:29:07.661Z,100384.84
2019-02-20T05:31:33.803Z,100390.09
2019-02-20T05:33:59.989Z,100392.66
2019-02-20T05:36:26.168Z,100382.53
2019-02-20T05:38:52.334Z,100384.50
2019-02-20T05:41:18.505Z,100382.48
2019-02-20T05:43:44.703Z,100394.31
2019-02-20T05:46:10.830Z,100388.29
2019-02-20T05:48:37.046Z,100389.78
2019-02-20T05:51:03.195Z,100382.34
2019-02-20T05:53:29.386Z,100397.31
2019-02-20T05:55:55.591Z,100403.55
2019-02-20T05:58:21.756Z,100411.28
2019-02-20T06:00:47.953Z,100409.27
2019-02-20T06:03:14.093Z,100418.62
2019-02-20T06:05:40.269Z,100419.78
2019-02-20T06:08:06.430Z,100419.87
2019-02-20T06:10:32.643Z,100416.72
2019-02-20T06:12:58.792Z,100425.67
2019-02-20T06:15:25.001Z,100437.05
2019-02-20T06:17:51.160Z,100439.38
2019-02-20T06:20:17.344Z,100438.00
2019-02-20T06:22:43.575Z,100449.59
2019-02-20T06:25:09.882Z,100449.55
2019-02-20T06:27:36.065Z,100460.84
2019-02-20T06:30:12.885Z,100463.14
2019-02-20T06:32:39.024Z,100467.30
2019-02-20T06:35:05.698Z,100460.66
2019-02-20T06:37:31.875Z,100466.98
2019-02-20T06:40:05.008Z,100472.48
2019-02-20T06:42:31.155Z,100472.41
2019-02-20T06:44:57.320Z,100479.91
2019-02-20T06:47:29.850Z,100483.80
2019-02-20T06:49:55.992Z,100487.55
2019-02-20T06:52:22.322Z,100479.46
2019-02-20T06:54:54.343Z,100481.86
2019-02-20T06:57:20.896Z,100489.33
2019-02-20T06:59:47.078Z,100490.25
2019-02-20T07:02:13.457Z,100495.02
2019-02-20T07:05:01.903Z,100498.23
2019-02-20T07:07:33.771Z,100495.94
2019-02-20T07:10:39.291Z,100494.20
2019-02-20T07:13:09.767Z,100496.67
2019-02-20T07:16:02.649Z,100500.70
2019-02-20T07:18:34.570Z,100512.91
2019-02-20T07:21:24.487Z,100507.14
2019-02-20T07:24:16.960Z,100507.72
2019-02-20T07:27:14.389Z,100524.18
2019-02-20T07:30:01.096Z,100521.98
2019-02-20T07:32:27.560Z,100521.50
2019-02-20T07:34:53.839Z,100528.31
2019-02-20T07:37:20.012Z,100531.16
2019-02-20T07:39:46.208Z,100535.16
2019-02-20T07:42:12.373Z,100535.19
2019-02-20T07:44:38.586Z,100535.22
2019-02-20T07:47:04.741Z,100541.67
2019-02-20T07:49:30.962Z,100542.70
2019-02-20T07:51:57.147Z,100548.11
2019-02-20T07:54:23.358Z,100548.59
2019-02-20T07:56:49.528Z,100556.11
2019-02-20T07:59:15.721Z,100552.30
2019-02-20T08:01:41.910Z,100565.41
2019-02-20T08:04:08.127Z,100561.92
2019-02-20T08:06:34.276Z,100562.67
2019-02-20T08:09:00.470Z,100566.46
2019-02-20T08:11:26.643Z,100567.14
2019-02-20T08:13:52.876Z,100571.20
2019-02-20T08:16:19.037Z,100558.44
2019-02-20T08:18:45.209Z,100566.58
2019-02-20T08:21:11.493Z,100565.48
2019-02-20T08:23:37.680Z,100573.75
2019-02-20T08:26:03.864Z,100575.66
2019-02-20T08:28:30.316Z,100582.05
2019-02-20T08:30:56.523Z,100578.89
2019-02-20T08:33:22.678Z,100581.42
2019-02-20T08:35:48.889Z,100584.02
2019-02-20T08:38:15.080Z,100576.84
2019-02-20T08:40:41.270Z,100573.16
2019-02-20T08:43:07.447Z,100572.90
2019-02-20T08:45:33.645Z,100583.84
2019-02-20T08:47:59.794Z,100588.55
2019-02-20T08:50:26.248Z,100593.64
2019-02-20T08:52:52.474Z,100594.23
2019-02-20T08:55:19.211Z,100600.57
2019-02-20T08:57:45.444Z,100609.70
2019-02-20T09:00:13.613Z,100607.50
2019-02-20T09:02:39.899Z,100614.41
2019-02-20T09:05:09.071Z,100615.72
2019-02-20T09:07:35.241Z,100617.63
2019-02-20T09:10:02.058Z,100615.13
2019-02-20T09:12:28.196Z,100618.02
2019-02-20T09:14:54.381Z,100613.22
2019-02-20T09:17:20.525Z,100625.11
2019-02-20T09:19:46.760Z,100623.59
2019-02-20T09:22:12.905Z,100624.02
2019-02-20T09:24:39.097Z,100620.04
2019-02-20T09:27:05.291Z,100623.78
2019-02-20T09:29:31.567Z,100628.62
2019-02-20T09:31:58.047Z,100626.23
2019-02-20T09:34:24.265Z,100624.92
2019-02-20T09:36:50.427Z,100616.64
2019-02-20T09:39:31.971Z,100623.92
2019-02-20T09:41:58.151Z,100629.58
2019-02-20T09:44:24.325Z,100633.38
2019-02-20T09:46:50.794Z,100631.97
2019-02-20T09:49:16.993Z,100629.69
2019-02-20T09:51:43.403Z,100633.73
2019-02-20T09:54:09.584Z,100631.80
2019-02-20T09:56:35.755Z,100625.21
2019-02-20T09:59:02.294Z,100623.34
2019-02-20T10:01:28.490Z,100623.00
2019-02-20T10:03:54.641Z,100619.24
2019-02-20T10:06:20.991Z,100624.51
2019-02-20T10:08:47.166Z,100617.16
2019-02-20T10:11:13.355Z,100625.13
2019-02-20T10:13:39.497Z,100623.27
2019-02-20T10:16:05.708Z,100625.91
2019-02-20T10:18:31.874Z,100626.42
2019-02-20T10:20:58.080Z,100617.09
2019-02-20T10:23:24.526Z,100614.08
2019-02-20T10:25:50.710Z,100620.41
2019-02-20T10:28:16.885Z,100612.02
2019-02-20T10:30:43.105Z,100610.12
2019-02-20T10:33:09.238Z,100614.33
2019-02-20T10:35:35.697Z,100619.84
2019-02-20T10:38:01.844Z,100617.03
2019-02-20T10:40:28.041Z,100611.81
2019-02-20T10:42:54.233Z,100614.66
2019-02-20T10:45:20.453Z,100600.53
2019-02-20T10:47:46.618Z,100605.78
2019-02-20T10:50:13.741Z,100605.72
2019-02-20T10:52:39.904Z,100590.49
2019-02-20T10:55:08.305Z,100608.93
2019-02-20T10:57:34.478Z,100609.05
2019-02-20T11:00:00.667Z,100602.72
2019-02-20T11:02:26.820Z,100603.89
2019-02-20T11:04:52.966Z,100598.98
2019-02-20T11:07:19.142Z,100597.70
2019-02-20T11:09:46.315Z,100610.48
2019-02-20T11:12:12.698Z,100605.17
2019-02-20T11:14:38.859Z,100615.17
2019-02-20T11:17:05.152Z,100614.50
2019-02-20T11:19:31.315Z,100614.95
2019-02-20T11:21:57.549Z,100613.56
2019-02-20T11:24:23.728Z,100614.19
2019-02-20T11:26:54.261Z,100620.83
2019-02-20T11:29:17.993Z,100609.45
2019-02-20T11:31:44.186Z,100615.10
2019-02-20T11:34:10.656Z,100607.86
2019-02-20T11:36:36.962Z,100613.34
2019-02-20T11:39:04.840Z,100606.77
2019-02-20T11:41:31.061Z,100613.36
2019-02-20T11:43:57.253Z,100600.67
2019-02-20T11:46:23.440Z,100600.75
2019-02-20T11:48:49.595Z,100596.41
2019-02-20T11:51:15.924Z,100593.75
2019-02-20T11:53:42.072Z,100589.47
2019-02-20T11:56:08.285Z,100593.23
2019-02-20T11:58:34.433Z,100600.68
2019-02-20T12:01:00.727Z,100594.83
2019-02-20T12:03:26.881Z,100597.45
2019-02-20T12:05:53.088Z,100590.61
2019-02-20T12:08:19.238Z,100601.70
2019-02-20T12:10:45.828Z,100597.66
2019-02-20T12:13:11.977Z,100602.75
2019-02-20T12:15:38.181Z,100605.27
2019-02-20T12:18:04.341Z,100606.23
2019-02-20T12:20:30.589Z,100595.59
2019-02-20T12:22:56.811Z,100603.95
2019-02-20T12:25:22.986Z,100604.45
2019-02-20T12:27:49.176Z,100599.63
2019-02-20T12:30:15.473Z,100606.81
2019-02-20T12:32:41.748Z,100606.78
2019-02-20T12:35:08.567Z,100603.19
2019-02-20T12:37:34.756Z,100606.70
2019-02-20T12:40:00.942Z,100603.09
2019-02-20T12:42:27.157Z,100609.37
2019-02-20T12:44:53.352Z,100602.23
2019-02-20T12:47:19.558Z,100603.48
2019-02-20T12:49:46.352Z,100601.39
2019-02-20T12:52:12.860Z,100602.42
2019-02-20T12:54:39.019Z,100599.44
2019-02-20T12:57:05.230Z,100600.13
2019-02-20T12:59:31.395Z,100596.80
2019-02-20T13:01:57.592Z,100591.95
2019-02-20T13:04:24.676Z,100584.78
2019-02-20T13:06:59.273Z,100592.13
2019-02-20T13:09:19.699Z,100601.28
2019-02-20T13:11:46.185Z,100591.73
2019-02-20T13:14:12.440Z,100594.83
2019-02-20T13:16:38.739Z,100592.11
2019-02-20T13:19:04.953Z,100598.74
2019-02-20T13:21:31.414Z,100594.03
2019-02-20T13:23:57.584Z,100592.85
2019-02-20T13:26:23.775Z,100590.67
2019-02-20T13:28:49.934Z,100590.86
2019-02-20T13:31:16.167Z,100593.86
2019-02-20T13:33:42.450Z,100593.86
2019-02-20T13:36:08.646Z,100592.34
2019-02-20T13:38:34.802Z,100588.80
2019-02-20T13:41:01.113Z,100601.87
2019-02-20T13:43:27.639Z,100603.80
2019-02-20T13:45:53.850Z,100605.31
2019-02-20T13:48:19.995Z,100604.14
2019-02-20T13:50:46.247Z,100600.98
2019-02-20T13:53:14.255Z,100602.78
2019-02-20T13:55:40.613Z,100603.88
2019-02-20T13:58:07.103Z,100605.63
2019-02-20T14:00:33.321Z,100604.51
2019-02-20T14:02:59.970Z,100603.85
2019-02-20T14:05:26.141Z,100615.50
2019-02-20T14:07:52.660Z,100612.08
2019-02-20T14:10:19.658Z,100610.45
2019-02-20T14:12:45.893Z,100610.52
2019-02-20T14:15:12.139Z,100608.71
2019-02-20T14:17:38.330Z,100615.52
2019-02-20T14:20:08.702Z,100612.88
2019-02-20T14:22:35.385Z,100617.08
2019-02-20T14:25:02.770Z,100617.48
2019-02-20T14:27:29.039Z,100615.19
2019-02-20T14:29:55.194Z,100614.86
2019-02-20T14:32:21.500Z,100611.80
2019-02-20T14:34:47.981Z,100613.66
2019-02-20T14:37:18.919Z,100612.06
2019-02-20T14:39:45.116Z,100611.91
2019-02-20T14:42:12.060Z,100603.01
2019-02-20T14:44:38.558Z,100602.47
2019-02-20T14:47:04.748Z,100603.47
2019-02-20T14:49:30.936Z,100601.14
2019-02-20T14:51:57.108Z,100606.79
2019-02-20T14:54:23.284Z,100598.03
2019-02-20T14:56:49.477Z,100599.28
2019-02-20T14:59:15.638Z,100598.84
2019-02-20T15:01:41.801Z,100603.53
2019-02-20T15:04:08.247Z,100598.48
2019-02-20T15:06:34.478Z,100601.63
2019-02-20T15:09:04.238Z,100605.28
2019-02-20T15:11:30.421Z,100609.67
2019-02-20T15:13:56.572Z,100610.84
2019-02-20T15:16:22.772Z,100610.93
2019-02-20T15:18:48.946Z,100616.53
2019-02-20T15:21:15.307Z,100615.20
2019-02-20T15:23:42.373Z,100615.33
2019-02-20T15:26:08.803Z,100614.50
2019-02-20T15:28:35.021Z,100618.19
2019-02-20T15:31:02.243Z,100619.52
2019-02-20T15:33:28.586Z,100619.48
2019-02-20T15:35:54.759Z,100623.42
2019-02-20T15:38:21.278Z,100623.72
2019-02-20T15:40:47.463Z,100629.98
2019-02-20T15:43:14.062Z,100626.12
2019-02-20T15:45:40.218Z,100636.37
2019-02-20T15:48:06.794Z,100641.63
2019-02-20T15:50:33.018Z,100644.41
2019-02-20T15:52:59.189Z,100642.05
2019-02-20T15:55:25.363Z,100645.32
2019-02-20T15:57:51.522Z,100639.05
2019-02-20T16:00:19.743Z,100644.75
2019-02-20T16:02:46.022Z,100644.16
2019-02-20T16:05:12.681Z,100648.00
2019-02-20T16:07:38.900Z,100648.48
2019-02-20T16:10:08.523Z,100653.81
2019-02-20T16:12:36.741Z,100651.14
2019-02-20T16:15:06.645Z,100660.61
2019-02-20T16:17:32.962Z,100660.53
2019-02-20T16:19:59.113Z,100656.81
2019-02-20T16:22:27.215Z,100658.42
2019-02-20T16:24:53.389Z,100661.20
2019-02-20T16:27:19.573Z,100666.95
2019-02-20T16:29:45.809Z,100668.68
2019-02-20T16:32:12.003Z,100667.75
2019-02-20T16:34:48.133Z,100668.84
2019-02-20T16:37:14.334Z,100672.72
2019-02-20T16:39:40.793Z,100666.69
2019-02-20T16:42:07.257Z,100667.99
2019-02-20T16:44:33.731Z,100670.97
2019-02-20T16:46:59.886Z,100677.52
2019-02-20T16:49:26.091Z,100673.72
2019-02-20T16:51:52.243Z,100675.56
2019-02-20T16:54:18.451Z,100675.88
2019-02-20T16:56:44.633Z,100678.84
2019-02-20T16:59:10.839Z,100682.53
2019-02-20T17:01:37.273Z,100684.54
2019-02-20T17:04:03.576Z,100683.25
2019-02-20T17:06:29.821Z,100685.93
2019-02-20T17:08:56.406Z,100689.13
2019-02-20T17:11:22.594Z,100692.19
2019-02-20T17:13:48.806Z,100696.09
2019-02-20T17:16:14.951Z,100696.92
2019-02-20T17:18:41.150Z,100696.68
2019-02-20T17:21:07.350Z,100697.78
2019-02-20T17:23:33.838Z,100695.39
2019-02-20T17:26:00.035Z,100699.72
2019-02-20T17:28:26.230Z,100697.30
2019-02-20T17:30:52.376Z,100703.37
2019-02-20T17:33:18.601Z,100701.50
2019-02-20T17:35:44.732Z,100710.28
2019-02-20T17:38:11.916Z,100715.91
2019-02-20T17:40:38.090Z,100712.91
2019-02-20T17:43:06.716Z,100716.06
2019-02-20T17:45:32.800Z,100724.92
2019-02-20T17:48:00.085Z,100730.67
2019-02-20T17:50:26.684Z,100743.06
2019-02-20T17:52:52.838Z,100740.03
2019-02-20T17:55:19.040Z,100743.98
2019-02-20T17:57:45.197Z,100741.28
2019-02-20T18:00:16.077Z,100748.72
2019-02-20T18:02:42.240Z,100744.19
2019-02-20T18:05:08.543Z,100749.45
2019-02-20T18:07:34.857Z,100745.36
2019-02-20T18:10:02.962Z,100745.77
2019-02-20T18:12:29.270Z,100753.11
2019-02-20T18:14:55.604Z,100749.95
2019-02-20T18:17:23.579Z,100747.47
2019-02-20T18:19:49.884Z,100746.65
2019-02-20T18:22:16.026Z,100744.69
2019-02-20T18:24:42.200Z,100747.01
2019-02-20T18:27:08.367Z,100747.68
2019-02-20T18:29:34.598Z,100747.80
2019-02-20T18:32:00.783Z,100749.23
2019-02-20T18:34:27.026Z,100752.88
2019-02-20T18:36:53.434Z,100745.89
2019-02-20T18:39:19.645Z,100750.70
2019-02-20T18:41:45.812Z,100749.09
2019-02-20T18:44:12.005Z,100753.16
2019-02-20T18:46:38.489Z,100756.87
2019-02-20T18:49:04.701Z,100759.42
2019-02-20T18:51:30.887Z,100762.98
2019-02-20T18:53:57.374Z,100769.55
2019-02-20T18:56:23.590Z,100764.45
2019-02-20T18:58:49.783Z,100771.61
2019-02-20T19:01:15.960Z,100769.14
2019-02-20T19:03:42.214Z,100772.84
2019-02-20T19:06:08.441Z,100776.00
2019-02-20T19:08:47.677Z,100773.20
2019-02-20T19:11:25.130Z,100776.67
2019-02-20T19:14:05.848Z,100788.70
2019-02-20T19:17:00.066Z,100784.86
2019-02-20T19:19:50.350Z,100779.77
2019-02-20T19:22:37.139Z,100781.41
2019-02-20T19:25:53.220Z,100785.09
2019-02-20T19:28:43.853Z,100790.92
2019-02-20T19:31:37.247Z,100790.03
2019-02-20T19:34:20.658Z,100793.67
2019-02-20T19:37:12.261Z,100795.55
2019-02-20T19:39:56.187Z,100803.95
2019-02-20T19:42:44.728Z,100800.52
2019-02-20T19:45:38.133Z,100802.22
2019-02-20T19:48:43.021Z,100801.11
2019-02-20T19:51:23.954Z,100806.77
2019-02-20T19:54:17.122Z,100804.87
2019-02-20T19:57:08.763Z,100806.20
2019-02-20T19:59:58.157Z,100804.62
2019-02-20T20:02:41.561Z,100802.23
2019-02-20T20:05:25.002Z,100801.53
2019-02-20T20:08:12.265Z,100802.91
2019-02-20T20:10:47.265Z,100798.38
2019-02-20T20:13:31.572Z,100803.68
2019-02-20T20:16:43.106Z,100813.25
2019-02-20T20:19:47.746Z,100811.16
2019-02-20T20:22:52.101Z,100811.56
2019-02-20T20:25:35.225Z,100817.65
2019-02-20T20:28:09.954Z,100813.55
2019-02-20T20:31:03.730Z,100815.70
2019-02-20T20:33:58.642Z,100817.12
2019-02-20T20:36:45.230Z,100815.77
2019-02-20T20:39:30.857Z,100809.09
2019-02-20T20:42:26.094Z,100812.55
2019-02-20T20:45:16.056Z,100812.39
2019-02-20T20:48:12.337Z,100813.20
2019-02-20T20:51:16.098Z,100809.53
2019-02-20T20:54:09.112Z,100805.86
2019-02-20T20:56:57.953Z,100804.00
2019-02-20T20:59:41.599Z,100801.48
2019-02-20T21:02:13.342Z,100803.88
2019-02-20T21:05:10.663Z,100802.95
2019-02-20T21:07:56.517Z,100806.17
2019-02-20T21:10:31.212Z,100805.10
2019-02-20T21:13:51.629Z,100807.56
2019-02-20T21:16:58.348Z,100801.38
2019-02-20T21:19:59.763Z,100795.66
2019-02-20T21:22:51.121Z,100796.17
2019-02-20T21:25:37.808Z,100799.27
2019-02-20T21:28:21.023Z,100801.25
2019-02-20T21:31:17.010Z,100802.67
2019-02-20T21:34:03.654Z,100797.80
2019-02-20T21:36:38.609Z,100799.77
2019-02-20T21:39:32.379Z,100796.48
2019-02-20T21:42:27.327Z,100800.18
2019-02-20T21:45:11.482Z,100802.87
2019-02-20T21:47:58.078Z,100806.09
2019-02-20T21:50:48.039Z,100801.89
2019-02-20T21:54:13.939Z,100805.17
2019-02-20T21:57:09.444Z,100802.61
2019-02-20T22:00:01.803Z,100804.77
2019-02-20T22:02:36.444Z,100805.92
2019-02-20T22:05:23.228Z,100805.66
2019-02-20T22:08:42.175Z,100809.12
2019-02-20T22:11:20.284Z,100812.38
2019-02-20T22:14:14.666Z,100809.52
2019-02-20T22:16:58.119Z,100811.89
2019-02-20T22:19:58.822Z,100814.68
2019-02-20T22:22:48.314Z,100816.69
2019-02-20T22:25:40.491Z,100813.10
2019-02-20T22:28:50.580Z,100809.09
2019-02-20T22:31:22.448Z,100812.03
2019-02-20T22:34:17.438Z,100816.16
2019-02-20T22:37:01.510Z,100815.34
2019-02-20T22:39:42.005Z,100816.77
2019-02-20T22:42:28.049Z,100818.58
2019-02-20T22:45:23.378Z,100814.48
2019-02-20T22:48:15.507Z,100814.48
2019-02-20T22:51:05.705Z,100815.46
2019-02-20T22:53:55.260Z,100811.84
2019-02-20T22:56:33.159Z,100815.70
2019-02-20T22:59:17.098Z,100809.27
2019-02-20T23:01:49.017Z,100810.34
2019-02-20T23:04:35.308Z,100806.58
2019-02-20T23:07:18.235Z,100811.23
2019-02-20T23:10:04.345Z,100811.64
2019-02-20T23:12:53.704Z,100810.70
2019-02-20T23:15:19.891Z,100812.66
2019-02-20T23:17:46.065Z,100812.50
2019-02-20T23:20:12.236Z,100811.95
2019-02-20T23:22:38.425Z,100811.36
2019-02-20T23:25:05.213Z,100814.31
2019-02-20T23:27:31.363Z,100818.27
2019-02-20T23:29:57.568Z,100820.84
2019-02-20T23:32:23.745Z,100820.94
2019-02-20T23:34:49.951Z,100824.14
2019-02-20T23:37:16.124Z,100822.42
2019-02-20T23:39:42.303Z,100830.25
2019-02-20T23:42:08.504Z,100824.38
2019-02-20T23:44:34.682Z,100828.63
2019-02-20T23:47:00.840Z,100829.52
2019-02-20T23:49:27.037Z,100832.77
2019-02-20T23:51:53.312Z,100838.35
2019-02-20T23:54:19.560Z,100837.37
2019-02-20T23:56:45.726Z,100837.03
2019-02-20T23:59:13.885Z,100839.83
